Time;durP1;ratioP1;P1;durP2;ratioP2;P2;SDS_P1;SDS_P2;PMS_P1;PMS_P2;Temp;Humidity;BMP_temperature;BMP_pressure;BME280_temperature;BME280_humidity;BME280_pressure;Samples;Min_cycle;Max_cycle;Signal;HPM_P1;HPM_P2
2022/08/27 00:02:24;;;;;;;9.95;8.43;;;;;;;;;;4954225;28;20027;-61
2022/08/27 00:04:50;;;;;;;11.65;8.00;;;;;;;;;;4954916;28;20024;-62
2022/08/27 00:07:17;;;;;;;11.52;8.02;;;;;;;;;;4954974;28;20027;-62
2022/08/27 00:09:43;;;;;;;12.32;9.05;;;;;;;;;;4954797;28;20023;-60
2022/08/27 00:12:09;;;;;;;10.63;9.02;;;;;;;;;;4970149;28;20027;-63
2022/08/27 00:14:36;;;;;;;9.40;8.27;;;;;;;;;;4961922;28;20563;-63
2022/08/27 00:17:04;;;;;;;15.13;8.95;;;;;;;;;;4955663;28;20086;-64
2022/08/27 00:19:30;;;;;;;11.65;8.90;;;;;;;;;;4959182;28;20042;-61
2022/08/27 00:21:56;;;;;;;16.17;8.55;;;;;;;;;;4958600;28;20070;-61
2022/08/27 00:24:22;;;;;;;12.77;8.70;;;;;;;;;;4954411;28;20046;-62
2022/08/27 00:26:52;;;;;;;11.95;8.55;;;;;;;;;;4954700;28;20035;-61
2022/08/27 00:29:18;;;;;;;15.45;9.75;;;;;;;;;;4966362;28;20023;-62
2022/08/27 00:31:44;;;;;;;16.77;10.15;;;;;;;;;;4948453;28;20020;-62
2022/08/27 00:34:10;;;;;;;11.73;9.23;;;;;;;;;;4951772;28;20039;-64
2022/08/27 00:36:36;;;;;;;11.43;9.63;;;;;;;;;;4948729;28;20837;-62
2022/08/27 00:39:03;;;;;;;12.40;10.25;;;;;;;;;;4973702;28;20027;-62
2022/08/27 00:41:29;;;;;;;14.20;9.63;;;;;;;;;;4956771;28;20050;-62
2022/08/27 00:43:57;;;;;;;16.08;10.55;;;;;;;;;;4952998;28;20027;-62
2022/08/27 00:46:23;;;;;;;15.15;10.13;;;;;;;;;;4972451;28;20034;-62
2022/08/27 00:48:50;;;;;;;11.73;10.17;;;;;;;;;;4973548;28;20042;-62
2022/08/27 00:51:17;;;;;;;12.70;9.48;;;;;;;;;;4958349;28;20035;-62
2022/08/27 00:53:43;;;;;;;9.35;8.48;;;;;;;;;;4954070;28;20031;-62
2022/08/27 00:56:11;;;;;;;11.80;8.63;;;;;;;;;;4952327;28;20028;-62
2022/08/27 00:58:39;;;;;;;17.13;9.25;;;;;;;;;;4955068;28;20023;-62
2022/08/27 01:01:07;;;;;;;13.18;9.18;;;;;;;;;;4966620;28;20035;-62
2022/08/27 01:03:34;;;;;;;10.50;9.20;;;;;;;;;;4973291;28;20031;-62
2022/08/27 01:06:00;;;;;;;11.75;9.30;;;;;;;;;;4973195;28;20030;-61
2022/08/27 01:08:28;;;;;;;14.35;10.55;;;;;;;;;;4973030;28;20053;-62
2022/08/27 01:10:57;;;;;;;13.90;10.18;;;;;;;;;;4962160;28;20499;-61
2022/08/27 01:13:24;;;;;;;12.40;10.70;;;;;;;;;;4957475;28;20483;-62
2022/08/27 01:15:57;;;;;;;14.77;10.90;;;;;;;;;;4972917;28;20055;-62
2022/08/27 01:18:23;;;;;;;17.08;11.07;;;;;;;;;;4970880;28;20029;-61
2022/08/27 01:21:08;;;;;;;14.25;10.77;;;;;;;;;;4962971;28;20472;-61
2022/08/27 01:23:43;;;;;;;12.27;10.93;;;;;;;;;;4972905;28;20029;-62
2022/08/27 01:26:10;;;;;;;12.85;11.02;;;;;;;;;;4995886;23;20142;-58
2022/08/27 01:28:37;;;;;;;14.93;11.95;;;;;;;;;;4972590;28;20411;-58
2022/08/27 01:31:04;;;;;;;13.27;10.47;;;;;;;;;;4972586;28;20026;-57
2022/08/27 01:33:30;;;;;;;13.13;11.82;;;;;;;;;;4972850;28;20270;-57
2022/08/27 01:35:56;;;;;;;12.52;11.20;;;;;;;;;;4972774;28;20034;-58
2022/08/27 01:38:23;;;;;;;13.37;10.23;;;;;;;;;;4971243;28;20094;-57
2022/08/27 01:40:49;;;;;;;;;;;;;;;;;;4973264;28;20332;-58
2022/08/27 01:43:16;;;;;;;13.02;10.57;;;;;;;;;;4972921;28;20363;-55
2022/08/27 01:45:44;;;;;;;13.75;11.68;;;;;;;;;;4972761;28;20045;-57
2022/08/27 01:48:10;;;;;;;12.85;11.52;;;;;;;;;;4963240;28;20031;-58
2022/08/27 01:50:37;;;;;;;13.50;12.10;;;;;;;;;;4953394;28;20030;-58
2022/08/27 01:53:04;;;;;;;18.90;12.32;;;;;;;;;;4961148;28;20034;-58
2022/08/27 01:55:30;;;;;;;19.67;12.93;;;;;;;;;;4972766;28;20023;-58
2022/08/27 01:57:56;;;;;;;14.93;13.40;;;;;;;;;;4964313;28;20115;-57
2022/08/27 02:00:24;;;;;;;16.10;13.95;;;;;;;;;;4953251;28;20034;-56
2022/08/27 02:02:50;;;;;;;13.98;12.48;;;;;;;;;;4953415;28;20027;-58
2022/08/27 02:05:17;;;;;;;14.38;12.38;;;;;;;;;;4953096;28;20129;-58
2022/08/27 02:07:43;;;;;;;13.93;12.13;;;;;;;;;;4962553;28;20030;-58
2022/08/27 02:10:10;;;;;;;13.35;11.95;;;;;;;;;;4975943;28;20050;-58
2022/08/27 02:12:36;;;;;;;14.30;12.50;;;;;;;;;;4973960;28;20204;-56
2022/08/27 02:15:03;;;;;;;13.97;12.60;;;;;;;;;;4956955;28;20024;-58
2022/08/27 02:17:29;;;;;;;;;;;;;;;;;;4962190;28;20383;-56
2022/08/27 02:19:55;;;;;;;16.67;12.57;;;;;;;;;;4976057;28;19906;-57
2022/08/27 02:22:23;;;;;;;16.40;13.25;;;;;;;;;;4971538;28;20109;-57
2022/08/27 02:24:49;;;;;;;14.20;12.75;;;;;;;;;;4956619;28;20031;-58
2022/08/27 02:27:15;;;;;;;15.80;14.20;;;;;;;;;;4958708;28;20069;-57
2022/08/27 02:29:41;;;;;;;14.77;13.30;;;;;;;;;;4975386;28;20022;-58
2022/08/27 02:32:07;;;;;;;14.80;13.33;;;;;;;;;;4976001;28;20344;-58
2022/08/27 02:34:33;;;;;;;13.18;11.88;;;;;;;;;;4975822;28;20317;-58
2022/08/27 02:36:59;;;;;;;18.42;13.73;;;;;;;;;;4957490;28;20078;-57
2022/08/27 02:39:25;;;;;;;13.77;12.27;;;;;;;;;;4975760;28;20033;-55
2022/08/27 02:41:55;;;;;;;17.87;13.23;;;;;;;;;;4975759;28;20029;-57
2022/08/27 02:44:21;;;;;;;14.38;12.48;;;;;;;;;;4975756;28;20254;-57
2022/08/27 02:46:47;;;;;;;16.80;13.77;;;;;;;;;;4958942;28;20034;-57
2022/08/27 02:49:14;;;;;;;15.82;14.10;;;;;;;;;;4956435;28;20034;-58
2022/08/27 02:51:40;;;;;;;14.93;12.35;;;;;;;;;;4956705;28;20058;-58
2022/08/27 02:54:06;;;;;;;15.73;13.98;;;;;;;;;;4956257;28;20031;-57
2022/08/27 02:56:32;;;;;;;13.63;12.38;;;;;;;;;;4970183;28;20027;-56
2022/08/27 02:58:58;;;;;;;16.05;14.40;;;;;;;;;;4957913;28;20050;-58
2022/08/27 03:01:25;;;;;;;19.30;13.93;;;;;;;;;;4956712;28;20392;-56
2022/08/27 03:03:51;;;;;;;17.02;14.05;;;;;;;;;;4957444;28;20035;-56
2022/08/27 03:06:17;;;;;;;17.23;14.52;;;;;;;;;;4957102;28;20118;-58
2022/08/27 03:08:43;;;;;;;16.55;14.60;;;;;;;;;;4970764;28;20503;-58
2022/08/27 03:11:09;;;;;;;21.85;15.07;;;;;;;;;;4962034;28;20035;-56
2022/08/27 03:13:36;;;;;;;20.50;15.88;;;;;;;;;;4953231;28;20083;-56
2022/08/27 03:16:03;;;;;;;18.20;16.10;;;;;;;;;;4950536;28;20031;-57
2022/08/27 03:18:30;;;;;;;18.05;16.08;;;;;;;;;;4955153;28;20074;-57
2022/08/27 03:20:56;;;;;;;22.55;16.58;;;;;;;;;;4955669;28;20110;-57
2022/08/27 03:23:24;;;;;;;18.75;16.52;;;;;;;;;;4955314;28;20392;-57
2022/08/27 03:25:52;;;;;;;17.33;15.38;;;;;;;;;;4954279;28;20078;-57
2022/08/27 03:28:19;;;;;;;17.90;15.90;;;;;;;;;;4972577;28;20085;-55
2022/08/27 03:30:50;;;;;;;18.60;15.65;;;;;;;;;;4968405;28;20515;-56
2022/08/27 03:33:17;;;;;;;20.13;16.52;;;;;;;;;;4967863;28;20038;-56
2022/08/27 03:35:43;;;;;;;18.77;16.00;;;;;;;;;;4958557;28;20492;-55
2022/08/27 03:38:09;;;;;;;18.45;16.08;;;;;;;;;;4951264;28;20027;-56
2022/08/27 03:40:35;;;;;;;20.47;17.43;;;;;;;;;;4945528;28;20771;-55
2022/08/27 03:43:01;;;;;;;19.77;17.70;;;;;;;;;;4952630;28;20526;-56
2022/08/27 03:45:27;;;;;;;20.77;17.93;;;;;;;;;;4955451;28;20271;-57
2022/08/27 03:47:53;;;;;;;20.95;18.67;;;;;;;;;;4970554;28;20042;-56
2022/08/27 03:50:19;;;;;;;28.73;19.40;;;;;;;;;;4970194;28;20507;-55
2022/08/27 03:52:45;;;;;;;32.73;21.80;;;;;;;;;;4965727;28;20306;-58
2022/08/27 03:55:12;;;;;;;21.80;19.08;;;;;;;;;;4954032;28;20519;-57
2022/08/27 03:57:38;;;;;;;22.55;19.52;;;;;;;;;;4954976;28;20060;-57
2022/08/27 04:00:07;;;;;;;22.60;18.23;;;;;;;;;;4955018;28;20031;-56
2022/08/27 04:02:33;;;;;;;22.33;18.45;;;;;;;;;;4954683;28;20030;-56
2022/08/27 04:04:59;;;;;;;23.03;17.83;;;;;;;;;;4954956;28;20082;-57
2022/08/27 04:07:25;;;;;;;19.67;16.83;;;;;;;;;;4954984;28;20027;-56
2022/08/27 04:09:51;;;;;;;25.70;19.37;;;;;;;;;;4954815;28;20042;-56
2022/08/27 04:12:17;;;;;;;22.85;17.17;;;;;;;;;;4954679;28;20270;-55
2022/08/27 04:14:43;;;;;;;20.27;16.97;;;;;;;;;;4954676;28;20031;-58
2022/08/27 04:17:09;;;;;;;19.67;16.77;;;;;;;;;;4953519;28;20029;-57
2022/08/27 04:19:35;;;;;;;20.53;16.97;;;;;;;;;;4954613;28;20259;-56
2022/08/27 04:22:03;;;;;;;22.30;16.93;;;;;;;;;;4954714;28;20027;-56
2022/08/27 04:24:30;;;;;;;19.77;17.73;;;;;;;;;;4954474;28;20469;-56
2022/08/27 04:26:57;;;;;;;24.83;17.27;;;;;;;;;;4953204;28;20118;-56
2022/08/27 04:29:23;;;;;;;21.50;17.92;;;;;;;;;;4953611;28;20391;-56
2022/08/27 04:31:49;;;;;;;22.93;17.73;;;;;;;;;;4954510;28;20035;-57
2022/08/27 04:34:16;;;;;;;19.15;17.13;;;;;;;;;;4954414;28;20035;-56
2022/08/27 04:36:42;;;;;;;24.40;18.08;;;;;;;;;;4954494;28;20070;-57
2022/08/27 04:39:08;;;;;;;21.83;17.15;;;;;;;;;;4954526;28;20031;-55
2022/08/27 04:41:34;;;;;;;21.50;18.83;;;;;;;;;;4952941;28;20020;-56
2022/08/27 04:44:05;;;;;;;23.67;18.57;;;;;;;;;;4954673;28;20668;-57
2022/08/27 04:46:32;;;;;;;21.67;18.38;;;;;;;;;;4954209;28;20030;-56
2022/08/27 04:48:59;;;;;;;24.42;18.23;;;;;;;;;;4954266;28;20031;-57
2022/08/27 04:51:26;;;;;;;22.92;18.00;;;;;;;;;;4954005;28;20054;-54
2022/08/27 04:53:52;;;;;;;20.92;18.80;;;;;;;;;;4954066;28;20102;-57
2022/08/27 04:56:21;;;;;;;21.17;18.90;;;;;;;;;;4953991;28;20396;-57
2022/08/27 04:58:48;;;;;;;19.50;17.48;;;;;;;;;;4954252;28;20110;-55
2022/08/27 05:01:18;;;;;;;24.15;18.88;;;;;;;;;;4953975;28;20300;-55
2022/08/27 05:03:44;;;;;;;25.25;18.38;;;;;;;;;;4954062;28;20031;-56
2022/08/27 05:06:11;;;;;;;22.37;18.20;;;;;;;;;;4954025;28;20034;-58
2022/08/27 05:08:38;;;;;;;28.10;18.77;;;;;;;;;;4953903;28;20262;-56
2022/08/27 05:11:06;;;;;;;22.75;18.52;;;;;;;;;;4953703;28;20444;-54
2022/08/27 05:13:32;;;;;;;20.67;18.48;;;;;;;;;;4953845;28;20231;-55
2022/08/27 05:16:02;;;;;;;21.17;17.73;;;;;;;;;;4954021;28;20434;-55
2022/08/27 05:18:28;;;;;;;24.67;17.73;;;;;;;;;;4954051;28;20389;-57
2022/08/27 05:20:56;;;;;;;20.30;17.27;;;;;;;;;;4953696;28;20019;-56
2022/08/27 05:23:22;;;;;;;21.75;17.27;;;;;;;;;;4953676;28;20262;-58
2022/08/27 05:25:49;;;;;;;22.27;16.38;;;;;;;;;;4953568;28;20067;-57
2022/08/27 05:28:14;;;;;;;;;;;;;;;;;;4954315;28;20508;-57
2022/08/27 05:30:43;;;;;;;19.10;16.88;;;;;;;;;;4952257;28;19961;-56
2022/08/27 05:33:09;;;;;;;19.52;17.42;;;;;;;;;;4953617;28;20034;-57
2022/08/27 05:35:41;;;;;;;26.63;17.83;;;;;;;;;;4953548;28;20023;-55
2022/08/27 05:38:08;;;;;;;20.60;17.02;;;;;;;;;;4953786;28;20033;-58
2022/08/27 05:40:34;;;;;;;22.90;17.00;;;;;;;;;;4952697;28;20023;-56
2022/08/27 05:43:00;;;;;;;21.77;16.25;;;;;;;;;;4957630;28;20027;-57
2022/08/27 05:45:26;;;;;;;20.77;16.80;;;;;;;;;;4956335;28;20074;-56
2022/08/27 05:47:52;;;;;;;20.40;14.90;;;;;;;;;;4957566;28;20259;-55
2022/08/27 05:50:19;;;;;;;19.07;15.63;;;;;;;;;;4957385;28;20038;-56
2022/08/27 05:52:45;;;;;;;17.17;15.38;;;;;;;;;;4957258;28;20039;-57
2022/08/27 05:55:11;;;;;;;17.67;13.60;;;;;;;;;;4957336;28;20020;-55
2022/08/27 05:57:37;;;;;;;20.95;13.82;;;;;;;;;;4957443;28;20027;-58
2022/08/27 06:02:49;;;;;;;12.65;9.82;;;;;;;;;;4957420;29;20530;-56
2022/08/27 06:05:15;;;;;;;10.93;9.50;;;;;;;;;;4957120;28;20035;-56
2022/08/27 06:07:41;;;;;;;17.70;9.48;;;24.60;78.10;;;;;;4957268;28;20039;-56
2022/08/27 06:10:07;;;;;;;14.07;8.30;;;25.50;69.30;;;;;;4957057;28;20416;-54
2022/08/27 06:12:33;;;;;;;14.18;8.57;;;25.60;68.70;;;;;;4956988;28;20024;-56
2022/08/27 06:15:00;;;;;;;11.50;7.40;;;25.70;68.30;;;;;;4957036;28;20106;-54
2022/08/27 06:17:25;;;;;;;11.85;8.05;;;25.80;68.20;;;;;;4956971;28;20027;-57
2022/08/27 06:19:51;;;;;;;11.83;7.47;;;25.80;67.50;;;;;;4956761;28;20023;-57
2022/08/27 06:22:17;;;;;;;11.27;6.40;;;25.90;67.50;;;;;;4956835;28;20027;-57
2022/08/27 06:24:43;;;;;;;8.87;6.30;;;26.20;66.40;;;;;;4955475;28;20164;-52
2022/08/27 06:27:11;;;;;;;8.70;6.30;;;;;;;;;;4956929;28;20485;-56
2022/08/27 06:29:37;;;;;;;11.40;6.35;;;26.10;66.40;;;;;;4955396;28;20030;-55
2022/08/27 06:32:03;;;;;;;14.27;13.07;;;26.10;66.50;;;;;;4956734;28;20031;-55
2022/08/27 06:34:29;;;;;;;9.18;7.22;;;26.50;70.00;;;;;;4956531;29;20404;-56
2022/08/27 06:36:55;;;;;;;9.73;7.10;;;26.20;65.60;;;;;;4955446;28;20030;-55
2022/08/27 06:39:20;;;;;;;11.00;7.63;;;26.20;65.30;;;;;;4956726;28;20023;-57
2022/08/27 06:41:49;;;;;;;8.73;6.30;;;;;;;;;;4956507;28;20051;-55
2022/08/27 06:44:15;;;;;;;7.22;4.72;;;26.30;65.70;;;;;;4956483;28;20038;-56
2022/08/27 06:46:42;;;;;;;9.68;4.57;;;26.50;64.40;;;;;;4955119;28;20039;-56
2022/08/27 06:49:09;;;;;;;10.73;4.78;;;26.60;64.10;;;;;;4956666;28;20114;-55
2022/08/27 06:51:37;;;;;;;8.23;3.42;;;26.70;64.00;;;;;;4956137;28;20027;-57
2022/08/27 06:54:07;;;;;;;7.45;3.45;;;26.80;63.10;;;;;;4955247;28;20511;-56
2022/08/27 06:56:33;;;;;;;5.55;3.63;;;26.90;62.60;;;;;;4956235;29;20034;-58
2022/08/27 06:59:01;;;;;;;9.65;3.60;;;26.90;62.20;;;;;;4956193;28;20025;-58
2022/08/27 07:01:33;;;;;;;5.18;3.63;;;27.00;61.60;;;;;;4955938;28;20447;-58
2022/08/27 07:04:03;;;;;;;10.88;3.60;;;27.00;61.50;;;;;;4956214;28;20032;-57
2022/08/27 07:06:30;;;;;;;4.60;3.42;;;27.00;61.00;;;;;;4956067;28;20049;-57
2022/08/27 07:08:57;;;;;;;7.45;3.50;;;26.90;84.20;;;;;;4956146;28;20488;-56
2022/08/27 07:11:23;;;;;;;15.63;4.03;;;26.90;60.40;;;;;;4955805;28;20028;-55
2022/08/27 07:13:50;;;;;;;6.65;3.28;;;26.90;60.00;;;;;;4955904;28;20400;-53
2022/08/27 07:16:19;;;;;;;15.05;2.95;;;26.80;60.40;;;;;;4955865;28;20027;-54
2022/08/27 07:18:45;;;;;;;12.35;3.70;;;26.70;60.20;;;;;;4938918;29;20447;-54
2022/08/27 07:21:11;;;;;;;11.63;3.20;;;;;;;;;;4955464;28;20019;-56
2022/08/27 07:23:39;;;;;;;8.70;3.72;;;26.80;64.80;;;;;;4955957;28;20165;-58
2022/08/27 07:26:12;;;;;;;47.00;6.40;;;26.10;59.90;;;;;;4976863;23;20129;-58
2022/08/27 07:28:39;;;;;;;49.58;7.65;;;25.70;66.70;;;;;;4955791;29;20236;-60
2022/08/27 07:31:09;;;;;;;24.95;6.47;;;25.20;70.20;;;;;;4955537;29;20023;-58
2022/08/27 07:33:36;;;;;;;12.02;4.43;;;;;;;;;;4955717;29;20500;-57
2022/08/27 07:36:03;;;;;;;8.13;4.95;;;24.50;73.20;;;;;;4955576;28;20034;-57
2022/08/27 07:38:29;;;;;;;;;;;23.40;73.30;;;;;;4955966;28;20031;-57
2022/08/27 07:40:55;;;;;;;11.43;4.80;;;23.20;74.50;;;;;;4955586;28;19911;-59
2022/08/27 07:46:05;;;;;;;7.75;4.20;;;23.20;74.90;;;;;;4955657;28;20042;-57
2022/08/27 07:48:34;;;;;;;15.83;6.30;;;;;;;;;;4954184;29;20027;-58
2022/08/27 07:51:04;;;;;;;14.18;6.75;;;;;;;;;;4954999;28;20027;-57
2022/08/27 07:53:31;;;;;;;22.55;13.23;;;23.40;75.60;;;;;;4955303;28;20038;-58
2022/08/27 07:56:04;;;;;;;16.75;7.57;;;23.30;78.80;;;;;;4953912;29;20027;-57
2022/08/27 07:58:30;;;;;;;11.27;4.60;;;23.20;78.20;;;;;;4955267;28;20159;-57
2022/08/27 08:00:56;;;;;;;17.93;4.13;;;22.90;78.20;;;;;;4953736;29;20117;-55
2022/08/27 08:03:22;;;;;;;9.50;3.57;;;22.50;79.20;;;;;;4954824;28;20023;-56
2022/08/27 08:05:49;;;;;;;14.27;4.37;;;22.40;79.60;;;;;;4954947;28;20027;-56
2022/08/27 08:08:15;;;;;;;14.00;4.28;;;22.40;78.80;;;;;;4953747;29;20102;-57
2022/08/27 08:10:42;;;;;;;11.00;3.60;;;22.30;79.00;;;;;;4954879;28;20130;-57
2022/08/27 08:13:11;;;;;;;11.02;4.50;;;;;;;;;;4953583;28;20495;-57
2022/08/27 08:15:37;;;;;;;12.13;3.75;;;;;;;;;;4954762;28;20047;-57
2022/08/27 08:18:04;;;;;;;11.27;3.47;;;;;;;;;;4954847;28;20499;-56
2022/08/27 08:20:30;;;;;;;6.97;3.35;;;;;;;;;;4954605;28;20030;-56
2022/08/27 08:22:56;;;;;;;14.45;3.22;;;22.60;79.00;;;;;;4954698;28;20027;-57
2022/08/27 08:25:22;;;;;;;5.87;3.10;;;22.00;78.80;;;;;;4953387;28;20082;-56
2022/08/27 08:27:48;;;;;;;9.40;3.03;;;22.10;79.10;;;;;;4953432;29;20023;-56
2022/08/27 08:30:14;;;;;;;9.90;2.67;;;22.20;78.70;;;;;;4954484;28;20377;-57
2022/08/27 08:32:39;;;;;;;8.77;2.60;;;22.30;77.80;;;;;;4954415;28;20024;-57
2022/08/27 08:35:06;;;;;;;6.53;3.23;;;;;;;;;;4953135;28;20023;-60
2022/08/27 08:37:33;;;;;;;7.28;2.60;;;;;;;;;;4953143;29;20065;-58
2022/08/27 08:39:59;;;;;;;17.67;4.32;;;;;;;;;;4954303;28;20038;-58
2022/08/27 08:42:29;;;;;;;14.77;4.07;;;;;;;;;;4953040;29;20050;-58
2022/08/27 08:44:56;;;;;;;12.50;3.83;;;;;;;;;;4954274;28;20601;-58
2022/08/27 08:47:38;;;;;;;5.80;3.40;;;;;;;;;;4954284;28;20403;-58
2022/08/27 08:50:04;;;;;;;8.45;3.90;;;;;;;;;;4952820;28;20027;-56
2022/08/27 08:52:46;;;;;;;10.33;5.00;;;;;;;;;;4954199;28;20503;-57
2022/08/27 08:55:12;;;;;;;11.95;4.93;;;;;;;;;;4954105;28;20019;-58
2022/08/27 08:57:43;;;;;;;11.07;5.53;;;;;;;;;;4954146;28;20038;-56
2022/08/27 09:00:12;;;;;;;11.90;5.15;;;;;;;;;;4954192;28;20255;-56
2022/08/27 09:02:38;;;;;;;5.95;4.68;;;;;;;;;;4952793;29;20023;-56
2022/08/27 09:05:06;;;;;;;8.57;5.05;;;;;;;;;;4953896;28;20464;-57
2022/08/27 09:07:35;;;;;;;9.30;4.68;;;;;;;;;;4954045;28;20443;-58
2022/08/27 09:10:04;;;;;;;9.45;5.03;;;;;;;;;;4953777;28;20447;-56
2022/08/27 09:12:32;;;;;;;9.40;4.90;;;;;;;;;;4953855;28;20019;-57
2022/08/27 09:15:04;;;;;;;8.27;4.70;;;;;;;;;;4952274;28;20027;-56
2022/08/27 09:17:31;;;;;;;8.55;5.32;;;;;;;;;;4953944;28;20023;-59
2022/08/27 09:19:57;;;;;;;11.65;5.80;;;;;;;;;;4953720;28;20027;-57
2022/08/27 09:22:27;;;;;;;9.53;5.13;;;;;;;;;;4953859;28;20024;-57
2022/08/27 09:25:11;;;;;;;13.30;4.60;;;;;;;;;;4953563;28;20488;-57
2022/08/27 09:27:40;;;;;;;5.30;3.85;;;;;;;;;;4954011;28;20042;-56
2022/08/27 09:30:19;;;;;;;7.78;3.50;;;22.10;86.00;;;;;;4953636;28;20079;-57
2022/08/27 09:32:54;;;;;;;5.28;3.72;;;;;;;;;;4953638;28;20031;-57
2022/08/27 09:35:20;;;;;;;5.40;4.13;;;;;;;;;;4953571;28;20404;-58
2022/08/27 09:37:51;;;;;;;9.40;3.38;;;;;;;;;;4952504;29;20039;-57
2022/08/27 09:40:22;;;;;;;6.60;4.40;;;;;;;;;;4953716;28;20020;-57
2022/08/27 09:42:52;;;;;;;10.88;3.83;;;;;;;;;;4953665;28;20034;-57
2022/08/27 09:45:20;;;;;;;4.72;3.35;;;;;;;;;;4952341;28;20433;-58
2022/08/27 09:47:54;;;;;;;6.90;3.38;;;;;;;;;;4952271;29;20102;-58
2022/08/27 09:50:22;;;;;;;4.05;3.60;;;;;;;;;;4953546;28;20373;-59
2022/08/27 09:52:54;;;;;;;6.03;3.67;;;22.20;80.20;;;;;;4953510;28;20035;-57
2022/08/27 09:55:33;;;;;;;5.50;3.75;;;22.70;79.50;;;;;;4953483;28;20027;-58
2022/08/27 09:58:00;;;;;;;5.95;3.90;;;22.70;79.40;;;;;;4953759;28;20404;-58
2022/08/27 10:00:38;;;;;;;5.88;3.53;;;22.70;79.80;;;;;;4953232;28;20019;-57
2022/08/27 10:03:05;;;;;;;5.80;4.05;;;22.80;80.60;;;;;;4952107;28;20492;-55
2022/08/27 10:05:43;;;;;;;5.47;4.22;;;22.70;80.30;;;;;;4952225;28;20028;-58
2022/08/27 10:08:22;;;;;;;7.43;4.55;;;22.80;79.90;;;;;;4953480;28;20036;-58
2022/08/27 10:10:56;;;;;;;6.60;4.40;;;22.90;79.60;;;;;;4953228;28;20031;-57
2022/08/27 10:13:37;;;;;;;6.47;4.00;;;22.90;79.10;;;;;;4951945;28;20507;-56
2022/08/27 10:16:46;;;;;;;8.00;4.65;;;22.90;78.50;;;;;;4953246;28;20030;-57
2022/08/27 10:19:37;;;;;;;7.95;4.53;;;22.90;78.60;;;;;;4961159;28;20039;-61
2022/08/27 10:22:09;;;;;;;8.55;4.43;;;;;;;;;;4953317;28;20027;-57
2022/08/27 10:24:52;;;;;;;5.90;4.25;;;;;;;;;;4953303;28;20035;-58
2022/08/27 10:27:37;;;;;;;5.40;4.03;;;;;;;;;;4954611;28;20035;-58
2022/08/27 10:30:14;;;;;;;7.60;4.53;;;22.70;79.20;;;;;;4956781;28;20031;-56
2022/08/27 10:32:49;;;;;;;6.18;5.18;;;;;;;;;;4956783;28;20027;-55
2022/08/27 10:35:22;;;;;;;6.88;5.07;;;;;;;;;;4955422;28;20026;-57
2022/08/27 10:37:48;;;;;;;5.75;4.40;;;;;;;;;;4955322;29;20031;-58
2022/08/27 10:40:26;;;;;;;7.27;4.83;;;;;;;;;;4956472;28;20050;-58
2022/08/27 10:43:04;;;;;;;5.30;4.80;;;;;;;;;;4956583;28;20433;-58
2022/08/27 10:45:40;;;;;;;7.60;4.18;;;;;;;;;;4956440;28;20034;-56
2022/08/27 10:48:15;;;;;;;5.28;3.90;;;;;;;;;;4954505;29;20185;-58
2022/08/27 10:50:54;;;;;;;7.35;3.88;;;;;;;;;;4954607;28;20058;-58
2022/08/27 10:53:58;;;;;;;8.35;4.80;;;;;;;;;;4955807;28;20025;-58
2022/08/27 10:56:27;;;;;;;6.13;4.70;;;;;;;;;;4953809;28;20031;-58
2022/08/27 10:58:53;;;;;;;5.80;4.63;;;;;;;;;;4953076;28;20031;-58
2022/08/27 11:01:25;;;;;;;8.73;4.80;;;;;;;;;;4954383;28;20039;-58
2022/08/27 11:03:51;;;;;;;10.55;5.75;;;;;;;;;;4955660;28;20496;-58
2022/08/27 11:06:17;;;;;;;4.75;3.40;;;;;;;;;;4955272;28;20086;-58
2022/08/27 11:08:48;;;;;;;6.93;3.73;;;;;;;;;;4955551;28;20244;-58
2022/08/27 11:11:20;;;;;;;8.65;4.38;;;;;;;;;;4955632;28;20305;-58
2022/08/27 11:13:50;;;;;;;6.40;3.38;;;;;;;;;;4954460;28;20027;-58
2022/08/27 11:16:42;;;;;;;6.97;3.85;;;;;;;;;;4946605;28;20038;-59
2022/08/27 11:19:22;;;;;;;5.63;4.22;;;;;;;;;;4953654;28;20501;-58
2022/08/27 11:21:58;;;;;;;5.95;3.90;;;;;;;;;;4941842;28;20058;-58
2022/08/27 11:24:32;;;;;;;4.38;3.70;;;;;;;;;;4950274;29;20028;-58
2022/08/27 11:27:02;;;;;;;7.65;4.68;;;;;;;;;;4948374;28;20028;-58
2022/08/27 11:29:31;;;;;;;5.68;3.50;;;;;;;;;;4954178;28;20035;-58
2022/08/27 11:32:10;;;;;;;4.93;3.35;;;;;;;;;;4955416;28;20031;-58
2022/08/27 11:34:43;;;;;;;7.13;3.38;;;;;;;;;;4950672;28;20027;-58
2022/08/27 11:37:18;;;;;;;5.15;4.13;;;;;;;;;;4946335;29;20381;-57
2022/08/27 11:39:47;;;;;;;6.45;4.18;;;;;;;;;;4950929;28;20023;-58
2022/08/27 11:42:34;;;;;;;8.02;4.45;;;;;;;;;;4944255;29;20023;-56
2022/08/27 11:45:05;;;;;;;7.18;5.47;;;;;;;;;;4936222;29;20067;-58
2022/08/27 11:47:31;;;;;;;7.82;4.55;;;;;;;;;;4936186;29;20481;-57
2022/08/27 11:49:59;;;;;;;6.40;4.93;;;;;;;;;;4936075;29;20617;-58
2022/08/27 11:52:27;;;;;;;7.60;4.55;;;;;;;;;;4941972;29;20063;-56
2022/08/27 11:55:09;;;;;;;9.95;4.63;;;;;;;;;;4948053;28;20115;-59
2022/08/27 11:57:36;;;;;;;5.35;3.97;;;;;;;;;;4951278;29;20087;-56
2022/08/27 12:00:23;;;;;;;8.90;5.05;;;;;;;;;;4953686;28;20373;-58
2022/08/27 12:03:00;;;;;;;6.10;4.88;;;;;;;;;;4954463;29;20039;-59
2022/08/27 12:05:32;;;;;;;6.88;5.07;;;;;;;;;;4954573;28;20020;-58
2022/08/27 12:07:59;;;;;;;5.95;5.05;;;;;;;;;;4954736;28;20027;-59
2022/08/27 12:10:26;;;;;;;8.02;4.97;;;;;;;;;;4954537;28;20236;-59
2022/08/27 12:13:15;;;;;;;7.22;5.57;;;;;;;;;;4954463;28;20019;-59
2022/08/27 12:15:44;;;;;;;6.32;5.07;;;;;;;;;;4956122;28;20043;-59
2022/08/27 12:18:13;;;;;;;6.10;5.50;;;;;;;;;;4954252;28;20081;-58
2022/08/27 12:20:54;;;;;;;9.50;5.47;;;;;;;;;;4954516;28;20039;-58
2022/08/27 12:23:39;;;;;;;5.95;4.85;;;;;;;;;;4952724;28;20036;-58
2022/08/27 12:26:16;;;;;;;6.75;5.25;;;;;;;;;;4953862;28;20031;-59
2022/08/27 12:28:43;;;;;;;7.03;4.75;;;;;;;;;;4954264;28;20493;-58
2022/08/27 12:31:09;;;;;;;6.88;4.88;;;;;;;;;;4954294;28;20027;-59
2022/08/27 12:33:40;;;;;;;7.43;5.45;;;;;;;;;;4954498;28;20074;-59
2022/08/27 12:36:13;;;;;;;7.03;4.47;;;;;;;;;;4952939;28;20035;-58
2022/08/27 12:38:43;;;;;;;5.88;4.97;;;;;;;;;;4954122;28;20023;-59
2022/08/27 12:41:10;;;;;;;5.28;4.78;;;;;;;;;;4954081;28;20039;-59
2022/08/27 12:43:42;;;;;;;7.60;5.35;;;;;;;;;;4954411;28;20024;-58
2022/08/27 12:46:10;;;;;;;4.97;4.00;;;;;;;;;;4952938;28;20114;-59
2022/08/27 12:48:38;;;;;;;5.30;4.85;;;;;;;;;;4954073;28;20029;-59
2022/08/27 12:51:07;;;;;;;6.85;4.47;;;;;;;;;;4953014;28;20031;-58
2022/08/27 12:53:40;;;;;;;9.25;5.25;;;;;;;;;;4952765;28;20030;-58
2022/08/27 12:56:06;;;;;;;7.05;4.50;;;;;;;;;;4954130;28;20027;-56
2022/08/27 12:59:03;;;;;;;6.50;4.45;;;;;;;;;;4952659;28;20023;-58
2022/08/27 13:01:30;;;;;;;7.45;4.47;;;;;;;;;;4948267;28;20522;-57
2022/08/27 13:03:56;;;;;;;6.47;4.65;;;;;;;;;;4953959;28;20389;-57
2022/08/27 13:06:23;;;;;;;5.75;4.43;;;;;;;;;;4954094;28;20058;-57
2022/08/27 13:08:59;;;;;;;4.43;4.03;;;;;;;;;;4953489;28;20423;-58
2022/08/27 13:11:27;;;;;;;8.55;4.53;;;;;;;;;;4953199;28;20031;-58
2022/08/27 13:14:04;;;;;;;7.70;4.50;;;;;;;;;;4953388;28;20039;-57
2022/08/27 13:16:30;;;;;;;8.38;4.35;;;;;;;;;;4953248;28;20058;-58
2022/08/27 13:18:57;;;;;;;7.60;4.47;;;;;;;;;;4952884;28;20030;-58
2022/08/27 13:21:26;;;;;;;4.82;3.72;;;;;;;;;;4952626;28;20031;-58
2022/08/27 13:24:00;;;;;;;5.80;3.30;;;;;;;;;;4953357;28;20039;-58
2022/08/27 13:26:28;;;;;;;6.20;3.60;;;;;;;;;;4949282;28;20046;-60
2022/08/27 13:28:55;;;;;;;3.70;3.28;;;;;;;;;;4939820;29;20480;-59
2022/08/27 13:31:23;;;;;;;8.57;3.70;;;;;;;;;;4953600;28;20035;-59
2022/08/27 13:33:49;;;;;;;4.15;3.65;;;;;;;;;;4953461;28;20027;-59
2022/08/27 13:36:36;;;;;;;4.10;3.38;;;;;;;;;;4941831;28;20032;-60
2022/08/27 13:39:02;;;;;;;;;;;;;;;;;;4948758;29;20555;-61
2022/08/27 13:41:29;;;;;;;5.10;3.10;;;;;;;;;;4948153;28;19917;-61
2022/08/27 13:43:55;;;;;;;2.72;2.50;;;;;;;;;;4934927;28;20042;-60
2022/08/27 13:46:25;;;;;;;3.40;2.80;;;25.90;75.70;;;;;;4947736;29;20041;-61
2022/08/27 13:48:54;;;;;;;4.28;3.30;;;40.80;37.80;;;;;;4951851;28;20042;-60
2022/08/27 13:51:44;;;;;;;3.33;2.70;;;;;;;;;;4952032;28;20543;-61
2022/08/27 13:54:12;;;;;;;10.82;6.68;;;43.40;36.70;;;;;;4953452;28;20031;-57
2022/08/27 13:57:07;;;;;;;6.07;3.50;;;42.70;33.20;;;;;;4952235;28;20102;-57
2022/08/27 13:59:36;;;;;;;5.20;3.05;;;42.50;54.10;;;;;;4951272;28;20035;-56
2022/08/27 14:02:10;;;;;;;4.93;3.33;;;43.70;32.40;;;;;;4959084;28;20034;-58
2022/08/27 14:04:43;;;;;;;2.83;2.58;;;43.70;50.00;;;;;;4939569;28;20457;-55
2022/08/27 14:07:12;;;;;;;4.95;3.03;;;43.60;52.70;;;;;;4954751;28;20515;-57
2022/08/27 14:09:46;;;;;;;5.93;2.67;;;42.80;48.80;;;;;;4955500;28;20031;-56
2022/08/27 14:12:33;;;;;;;3.42;2.33;;;42.50;50.50;;;;;;4957508;28;20114;-57
2022/08/27 14:15:20;;;;;;;2.92;2.55;;;;;;;;;;4948736;28;20106;-57
2022/08/27 14:17:46;;;;;;;4.38;2.70;;;44.80;49.40;;;;;;4955501;28;20276;-55
2022/08/27 14:20:14;;;;;;;2.58;2.20;;;45.50;47.10;;;;;;4953558;28;20520;-58
2022/08/27 14:22:41;;;;;;;3.40;2.22;;;45.20;46.00;;;;;;4955293;28;20485;-58